createdAt,value
2022-09-13T00:00:46.998Z,98673.56
2022-09-13T00:03:14.108Z,98675.56
2022-09-13T00:05:40.883Z,98660.53
2022-09-13T00:08:08.026Z,98663.69
2022-09-13T00:10:36.556Z,98671.94
2022-09-13T00:13:04.088Z,98674.59
2022-09-13T00:15:31.149Z,98671.78
2022-09-13T00:17:59.580Z,98668.72
2022-09-13T00:20:28.150Z,98673.19
2022-09-13T00:22:54.832Z,98669.78
2022-09-13T00:25:21.832Z,98667.66
2022-09-13T00:27:48.509Z,98660.38
2022-09-13T00:30:15.258Z,98662.66
2022-09-13T00:32:42.306Z,98651.97
2022-09-13T00:35:09.980Z,98646.66
2022-09-13T00:37:36.754Z,98640.06
2022-09-13T00:40:06.350Z,98639.06
2022-09-13T00:42:36.722Z,98631.97
2022-09-13T00:45:24.629Z,98643.34
2022-09-13T00:47:58.169Z,98631.91
2022-09-13T00:50:45.465Z,98622.66
2022-09-13T00:53:22.208Z,98617.84
2022-09-13T00:56:00.604Z,98621.00
2022-09-13T00:58:39.084Z,98617.38
2022-09-13T01:01:09.300Z,98612.41
2022-09-13T01:03:37.635Z,98612.56
2022-09-13T01:06:15.833Z,98618.00
2022-09-13T01:08:44.506Z,98617.69
2022-09-13T01:11:16.049Z,98614.88
2022-09-13T01:13:43.069Z,98611.72
2022-09-13T01:16:10.525Z,98608.97
2022-09-13T01:18:37.363Z,98594.78
2022-09-13T01:22:00.304Z,98605.19
2022-09-13T01:25:23.296Z,98603.91
2022-09-13T01:31:36.079Z,98593.19
2022-09-13T01:34:33.108Z,98586.56
2022-09-13T01:37:25.543Z,98589.88
2022-09-13T01:40:08.834Z,98571.25
2022-09-13T01:42:47.465Z,98573.22
2022-09-13T01:45:30.483Z,98567.47
2022-09-13T01:48:17.784Z,98569.00
2022-09-13T01:50:53.728Z,98564.03
2022-09-13T01:53:50.777Z,98569.78
2022-09-13T01:56:27.378Z,98564.88
2022-09-13T01:58:58.382Z,98567.72
2022-09-13T02:01:30.834Z,98576.44
2022-09-13T02:04:24.821Z,98570.69
2022-09-13T02:07:04.355Z,98568.22
2022-09-13T02:09:35.206Z,98569.19
2022-09-13T02:12:17.324Z,98567.03
2022-09-13T02:14:45.684Z,98572.47
2022-09-13T02:17:24.537Z,98560.50
2022-09-13T02:20:08.441Z,98558.69
2022-09-13T02:22:39.339Z,98554.25
2022-09-13T02:25:10.698Z,98559.69
2022-09-13T02:27:39.489Z,98555.72
2022-09-13T02:30:10.056Z,98549.00
2022-09-13T02:32:40.931Z,98552.47
2022-09-13T02:35:17.208Z,98555.22
2022-09-13T02:37:50.317Z,98556.22
2022-09-13T02:40:22.286Z,98560.53
2022-09-13T02:42:59.716Z,98553.09
2022-09-13T02:45:32.252Z,98569.06
2022-09-13T02:48:10.646Z,98563.66
2022-09-13T02:51:00.093Z,98545.88
2022-09-13T02:53:35.172Z,98547.19
2022-09-13T02:56:26.729Z,98549.66
2022-09-13T02:58:58.498Z,98558.09
2022-09-13T03:01:25.870Z,98556.25
2022-09-13T03:03:56.417Z,98556.59
2022-09-13T03:06:24.777Z,98553.97
2022-09-13T03:08:52.445Z,98550.81
2022-09-13T03:11:38.760Z,98551.63
2022-09-13T03:14:55.459Z,98557.22
2022-09-13T03:17:51.871Z,98558.06
2022-09-13T03:20:36.074Z,98558.19
2022-09-13T03:23:40.100Z,98554.56
2022-09-13T03:26:26.088Z,98551.78
2022-09-13T03:29:07.745Z,98553.97
2022-09-13T03:31:47.950Z,98550.66
2022-09-13T03:34:35.765Z,98553.97
2022-09-13T03:37:21.496Z,98551.97
2022-09-13T03:40:01.103Z,98555.25
2022-09-13T03:43:17.555Z,98552.97
2022-09-13T03:45:55.719Z,98545.53
2022-09-13T03:48:23.750Z,98549.66
2022-09-13T03:50:51.356Z,98550.81
2022-09-13T03:53:22.874Z,98555.56
2022-09-13T03:55:49.833Z,98552.28
2022-09-13T03:58:21.175Z,98556.56
2022-09-13T04:00:48.269Z,98554.09
2022-09-13T04:03:15.548Z,98559.84
2022-09-13T04:05:42.729Z,98556.56
2022-09-13T04:08:10.054Z,98560.19
2022-09-13T04:10:37.952Z,98555.75
2022-09-13T04:13:05.277Z,98549.31
2022-09-13T04:15:32.175Z,98547.00
2022-09-13T04:17:59.159Z,98538.28
2022-09-13T04:20:26.178Z,98535.19
2022-09-13T04:22:54.029Z,98532.22
2022-09-13T04:25:22.468Z,98538.31
2022-09-13T04:27:54.190Z,98537.47
2022-09-13T04:30:22.170Z,98528.59
2022-09-13T04:32:48.831Z,98527.28
2022-09-13T04:35:19.818Z,98532.53
2022-09-13T04:37:46.556Z,98528.91
2022-09-13T04:40:14.908Z,98528.91
2022-09-13T04:42:41.686Z,98528.22
2022-09-13T04:45:09.852Z,98531.22
2022-09-13T04:47:36.735Z,98534.50
2022-09-13T04:50:03.558Z,98538.97
2022-09-13T04:52:30.415Z,98529.56
2022-09-13T04:55:01.038Z,98541.25
2022-09-13T04:57:28.987Z,98540.44
2022-09-13T04:59:55.723Z,98539.31
2022-09-13T05:02:22.911Z,98534.03
2022-09-13T05:04:49.783Z,98533.69
2022-09-13T05:07:17.008Z,98538.81
2022-09-13T05:09:43.774Z,98540.28
2022-09-13T05:12:11.944Z,98535.84
2022-09-13T05:14:38.757Z,98547.34
2022-09-13T05:17:05.579Z,98542.06
2022-09-13T05:19:32.774Z,98543.41
2022-09-13T05:21:59.704Z,98530.53
2022-09-13T05:24:26.526Z,98536.13
2022-09-13T05:26:54.316Z,98536.78
2022-09-13T05:29:21.316Z,98537.09
2022-09-13T05:31:48.449Z,98536.44
2022-09-13T05:34:17.890Z,98533.50
2022-09-13T05:36:44.844Z,98526.47
2022-09-13T05:42:05.039Z,98523.28
2022-09-13T05:44:31.666Z,98520.47
2022-09-13T05:46:58.682Z,98518.00
2022-09-13T05:49:25.908Z,98518.00
2022-09-13T05:51:53.314Z,98519.78
2022-09-13T05:54:20.301Z,98520.31
2022-09-13T05:56:46.864Z,98515.03
2022-09-13T05:59:14.948Z,98513.13
2022-09-13T06:01:43.109Z,98517.56
2022-09-13T06:04:10.505Z,98511.97
2022-09-13T06:06:37.389Z,98503.22
2022-09-13T06:09:06.713Z,98509.28
2022-09-13T06:11:33.680Z,98496.69
2022-09-13T06:14:02.129Z,98498.94
2022-09-13T06:16:29.456Z,98504.22
2022-09-13T06:18:58.271Z,98510.97
2022-09-13T06:21:28.916Z,98514.09
2022-09-13T06:23:56.290Z,98529.59
2022-09-13T06:26:24.965Z,98528.88
2022-09-13T06:28:53.862Z,98531.81
2022-09-13T06:31:23.187Z,98529.31
2022-09-13T06:33:51.080Z,98513.66
2022-09-13T06:36:21.884Z,98514.28
2022-09-13T06:38:49.957Z,98504.09
2022-09-13T06:41:23.879Z,98505.38
2022-09-13T06:43:57.728Z,98509.38
2022-09-13T06:46:25.958Z,98511.03
2022-09-13T06:48:54.732Z,98503.44
2022-09-13T06:51:24.997Z,98513.81
2022-09-13T06:53:53.384Z,98529.63
2022-09-13T06:56:29.357Z,98512.66
2022-09-13T06:59:05.191Z,98503.72
2022-09-13T07:01:35.894Z,98494.75
2022-09-13T07:04:05.240Z,98500.75
2022-09-13T07:06:33.955Z,98505.75
2022-09-13T07:09:03.225Z,98511.44
2022-09-13T07:11:37.022Z,98507.16
2022-09-13T07:14:04.636Z,98509.41
2022-09-13T07:16:35.953Z,98519.25
2022-09-13T07:19:08.233Z,98517.06
2022-09-13T07:21:35.790Z,98505.66
2022-09-13T07:24:03.356Z,98504.84
2022-09-13T07:26:31.999Z,98506.88
2022-09-13T07:29:00.738Z,98501.84
2022-09-13T07:31:32.899Z,98499.13
2022-09-13T07:34:02.893Z,98508.75
2022-09-13T07:36:32.263Z,98526.59
2022-09-13T07:39:00.216Z,98537.13
2022-09-13T07:41:28.353Z,98534.59
2022-09-13T07:43:56.397Z,98539.31
2022-09-13T07:46:28.297Z,98529.47
2022-09-13T07:48:57.142Z,98539.53
2022-09-13T07:51:32.605Z,98543.09
2022-09-13T07:54:01.812Z,98540.72
2022-09-13T07:56:31.261Z,98542.66
2022-09-13T07:59:01.543Z,98541.59
2022-09-13T08:01:55.826Z,98547.44
2022-09-13T08:04:25.625Z,98542.03
2022-09-13T08:06:52.853Z,98546.56
2022-09-13T08:09:20.163Z,98547.19
2022-09-13T08:11:54.972Z,98550.28
2022-09-13T08:14:22.953Z,98537.94
2022-09-13T08:16:50.494Z,98542.78
2022-09-13T08:19:18.694Z,98542.25
2022-09-13T08:21:45.999Z,98546.09
2022-09-13T08:24:18.548Z,98545.59
2022-09-13T08:26:46.043Z,98538.66
2022-09-13T08:29:14.140Z,98541.78
2022-09-13T08:31:43.996Z,98545.97
2022-09-13T08:34:15.853Z,98547.09
2022-09-13T08:36:43.335Z,98536.09
2022-09-13T08:39:14.192Z,98542.91
2022-09-13T08:41:53.224Z,98547.88
2022-09-13T08:44:30.130Z,98538.41
2022-09-13T08:47:15.153Z,98528.84
2022-09-13T08:49:45.867Z,98518.47
2022-09-13T08:52:34.556Z,98521.44
2022-09-13T08:55:08.834Z,98519.78
2022-09-13T08:57:47.858Z,98506.78
2022-09-13T09:00:50.679Z,98506.06
2022-09-13T09:03:38.971Z,98509.75
2022-09-13T09:06:16.179Z,98511.06
2022-09-13T09:09:05.290Z,98509.88
2022-09-13T09:11:44.326Z,98509.28
2022-09-13T09:14:47.920Z,98514.25
2022-09-13T09:17:49.880Z,98515.91
2022-09-13T09:20:37.283Z,98520.94
2022-09-13T09:23:08.771Z,98514.66
2022-09-13T09:25:35.742Z,98512.44
2022-09-13T09:28:11.212Z,98515.50
2022-09-13T09:30:54.046Z,98514.88
2022-09-13T09:33:31.862Z,98507.31
2022-09-13T09:36:07.607Z,98512.38
2022-09-13T09:38:42.944Z,98526.28
2022-09-13T09:41:37.192Z,98513.59
2022-09-13T09:44:17.796Z,98511.13
2022-09-13T09:46:49.357Z,98506.41
2022-09-13T09:49:40.537Z,98507.19
2022-09-13T09:52:11.373Z,98507.16
2022-09-13T09:54:40.009Z,98496.84
2022-09-13T09:57:09.952Z,98491.91
2022-09-13T09:59:37.462Z,98492.88
2022-09-13T10:02:19.752Z,98495.09
2022-09-13T10:04:57.252Z,98492.19
2022-09-13T10:07:32.951Z,98489.25
2022-09-13T10:10:08.694Z,98478.34
2022-09-13T10:12:39.571Z,98478.13
2022-09-13T10:15:29.868Z,98480.38
2022-09-13T10:18:42.366Z,98479.00
2022-09-13T10:21:06.348Z,98476.19
2022-09-13T10:23:35.942Z,98479.56
2022-09-13T10:26:33.204Z,98467.91
2022-09-13T10:29:09.152Z,98459.75
2022-09-13T10:31:40.611Z,98457.06
2022-09-13T10:34:30.174Z,98461.91
2022-09-13T10:37:06.555Z,98452.09
2022-09-13T10:39:36.208Z,98450.25
2022-09-13T10:42:07.438Z,98460.09
2022-09-13T10:45:21.381Z,98458.19
2022-09-13T10:47:51.588Z,98454.66
2022-09-13T10:50:26.984Z,98445.84
2022-09-13T10:52:58.927Z,98454.72
2022-09-13T10:55:55.395Z,98459.84
2022-09-13T10:58:22.464Z,98447.03
2022-09-13T11:01:11.855Z,98457.06
2022-09-13T11:04:17.726Z,98447.75
2022-09-13T11:07:18.519Z,98443.22
2022-09-13T11:09:53.751Z,98443.22
2022-09-13T11:12:34.927Z,98438.66
2022-09-13T11:15:37.456Z,98441.06
2022-09-13T11:18:26.139Z,98447.72
2022-09-13T11:20:59.591Z,98444.91
2022-09-13T11:23:56.140Z,98434.72
2022-09-13T11:26:55.345Z,98433.66
2022-09-13T11:30:17.797Z,98429.78
2022-09-13T11:33:33.657Z,98429.56
2022-09-13T11:36:18.892Z,98429.06
2022-09-13T11:38:59.303Z,98413.31
2022-09-13T11:41:38.498Z,98425.38
2022-09-13T11:44:31.308Z,98424.81
2022-09-13T11:47:21.206Z,98422.41
2022-09-13T11:50:42.915Z,98414.88
2022-09-13T11:56:43.263Z,98413.44
2022-09-13T11:59:31.309Z,98420.28
2022-09-13T12:02:02.355Z,98410.94
2022-09-13T12:04:35.419Z,98414.69
2022-09-13T12:07:10.721Z,98412.19
2022-09-13T12:09:42.233Z,98417.63
2022-09-13T12:12:14.223Z,98416.97
2022-09-13T12:14:50.972Z,98417.44
2022-09-13T12:17:30.825Z,98408.84
2022-09-13T12:20:00.997Z,98409.25
2022-09-13T12:22:31.183Z,98409.69
2022-09-13T12:25:00.359Z,98405.13
2022-09-13T12:27:46.665Z,98406.25
2022-09-13T12:30:21.554Z,98400.19
2022-09-13T12:32:49.458Z,98398.41
2022-09-13T12:35:36.303Z,98395.34
2022-09-13T12:38:21.008Z,98398.75
2022-09-13T12:41:03.362Z,98387.13
2022-09-13T12:43:51.536Z,98383.53
2022-09-13T12:46:50.584Z,98380.53
2022-09-13T12:49:36.660Z,98380.22
2022-09-13T12:52:33.019Z,98385.22
2022-09-13T12:55:29.413Z,98387.03
2022-09-13T12:58:38.177Z,98378.78
2022-09-13T13:01:16.127Z,98369.19
2022-09-13T13:04:00.144Z,98371.41
2022-09-13T13:06:41.686Z,98367.88
2022-09-13T13:09:28.795Z,98360.03
2022-09-13T13:11:58.649Z,98359.81
2022-09-13T13:14:40.745Z,98357.41
2022-09-13T13:17:44.783Z,98350.56
2022-09-13T13:21:07.782Z,98344.63
2022-09-13T13:23:39.262Z,98338.19
2022-09-13T13:26:43.127Z,98334.72
2022-09-13T13:29:22.747Z,98328.75
2022-09-13T13:32:19.095Z,98332.19
2022-09-13T13:34:48.741Z,98329.84
2022-09-13T13:37:35.900Z,98317.06
2022-09-13T13:40:26.256Z,98329.06
2022-09-13T13:43:17.357Z,98318.44
2022-09-13T13:45:58.221Z,98304.38
2022-09-13T13:48:41.081Z,98315.53
2022-09-13T13:51:22.137Z,98301.06
2022-09-13T13:53:52.542Z,98296.50
2022-09-13T13:56:28.096Z,98300.00
2022-09-13T13:58:59.902Z,98304.31
2022-09-13T14:01:29.309Z,98306.19
2022-09-13T14:04:51.245Z,98296.53
2022-09-13T14:07:36.364Z,98295.22
2022-09-13T14:10:44.837Z,98296.94
2022-09-13T14:13:44.939Z,98296.03
2022-09-13T14:16:36.931Z,98290.66
2022-09-13T14:19:19.928Z,98288.22
2022-09-13T14:21:46.638Z,98288.03
2022-09-13T14:24:25.605Z,98280.94
2022-09-13T14:26:59.438Z,98285.81
2022-09-13T14:29:27.042Z,98279.09
2022-09-13T14:31:57.333Z,98281.31
2022-09-13T14:34:51.802Z,98278.25
2022-09-13T14:37:19.985Z,98277.16
2022-09-13T14:40:00.715Z,98278.31
2022-09-13T14:42:38.517Z,98267.00
2022-09-13T14:45:06.384Z,98263.31
2022-09-13T14:47:38.439Z,98259.50
2022-09-13T14:50:16.673Z,98266.22
2022-09-13T14:53:05.466Z,98260.59
2022-09-13T14:55:39.663Z,98267.09
2022-09-13T14:58:09.343Z,98258.44
2022-09-13T15:00:46.406Z,98265.38
2022-09-13T15:03:16.888Z,98265.22
2022-09-13T15:05:54.678Z,98258.28
2022-09-13T15:08:54.365Z,98259.66
2022-09-13T15:11:34.390Z,98255.69
2022-09-13T15:14:20.645Z,98251.66
2022-09-13T15:16:51.099Z,98259.22
2022-09-13T15:19:29.557Z,98265.38
2022-09-13T15:22:20.687Z,98264.03
2022-09-13T15:24:55.018Z,98258.56
2022-09-13T15:27:32.172Z,98261.00
2022-09-13T15:30:04.366Z,98256.94
2022-09-13T15:32:44.641Z,98245.50
2022-09-13T15:35:41.495Z,98252.50
2022-09-13T15:38:37.842Z,98247.88
2022-09-13T15:41:18.437Z,98244.25
2022-09-13T15:43:45.615Z,98253.88
2022-09-13T15:46:15.758Z,98249.31
2022-09-13T15:48:50.658Z,98241.53
2022-09-13T15:51:17.860Z,98248.03
2022-09-13T15:53:46.161Z,98245.38
2022-09-13T15:56:20.454Z,98238.59
2022-09-13T15:58:47.418Z,98245.00
2022-09-13T16:01:17.388Z,98248.78
2022-09-13T16:03:45.296Z,98240.06
2022-09-13T16:06:12.680Z,98229.56
2022-09-13T16:08:40.195Z,98235.03
2022-09-13T16:11:07.526Z,98235.50
2022-09-13T16:13:35.414Z,98238.63
2022-09-13T16:16:04.351Z,98232.03
2022-09-13T16:18:32.599Z,98234.34
2022-09-13T16:21:00.372Z,98237.13
2022-09-13T16:23:27.265Z,98239.69
2022-09-13T16:25:57.383Z,98236.53
2022-09-13T16:28:24.148Z,98228.28
2022-09-13T16:30:51.223Z,98236.34
2022-09-13T16:33:18.336Z,98229.28
2022-09-13T16:35:45.095Z,98236.38
2022-09-13T16:38:12.249Z,98239.94
2022-09-13T16:40:42.610Z,98235.88
2022-09-13T16:43:11.015Z,98233.09
2022-09-13T16:45:42.297Z,98227.84
2022-09-13T16:48:09.389Z,98239.19
2022-09-13T16:50:40.803Z,98236.50
2022-09-13T16:53:09.154Z,98234.44
2022-09-13T16:55:36.236Z,98246.72
2022-09-13T16:58:03.012Z,98241.34
2022-09-13T17:00:30.365Z,98238.19
2022-09-13T17:02:57.425Z,98237.56
2022-09-13T17:05:24.884Z,98240.66
2022-09-13T17:07:52.831Z,98239.50
2022-09-13T17:10:20.375Z,98241.00
2022-09-13T17:12:47.999Z,98250.44
2022-09-13T17:15:15.602Z,98239.22
2022-09-13T17:17:44.132Z,98238.44
2022-09-13T17:20:13.995Z,98239.81
2022-09-13T17:22:41.232Z,98239.19
2022-09-13T17:25:09.093Z,98241.53
2022-09-13T17:27:37.258Z,98237.47
2022-09-13T17:30:06.060Z,98233.88
2022-09-13T17:32:32.896Z,98234.31
2022-09-13T17:34:59.864Z,98234.34
2022-09-13T17:37:27.320Z,98230.78
2022-09-13T17:39:54.618Z,98238.47
2022-09-13T17:42:23.532Z,98233.84
2022-09-13T17:44:50.650Z,98239.50
2022-09-13T17:47:17.399Z,98240.34
2022-09-13T17:49:44.102Z,98244.78
2022-09-13T17:52:12.175Z,98250.50
2022-09-13T17:54:38.919Z,98232.75
2022-09-13T17:57:05.903Z,98234.50
2022-09-13T17:59:32.862Z,98239.75
2022-09-13T18:02:01.273Z,98234.78
2022-09-13T18:04:29.525Z,98243.75
2022-09-13T18:06:56.371Z,98251.31
2022-09-13T18:09:23.252Z,98262.94
2022-09-13T18:11:50.844Z,98251.56
2022-09-13T18:14:19.511Z,98258.53
2022-09-13T18:16:47.046Z,98262.25
2022-09-13T18:19:13.965Z,98261.78
2022-09-13T18:21:40.970Z,98269.78
2022-09-13T18:24:08.079Z,98263.66
2022-09-13T18:26:35.344Z,98264.09
2022-09-13T18:29:05.364Z,98267.00
2022-09-13T18:31:34.817Z,98264.31
2022-09-13T18:34:05.571Z,98258.28
2022-09-13T18:36:36.553Z,98266.31
2022-09-13T18:39:05.375Z,98268.16
2022-09-13T18:41:33.910Z,98271.84
2022-09-13T18:44:00.712Z,98278.84
2022-09-13T18:46:30.768Z,98266.38
2022-09-13T18:48:58.160Z,98267.22
2022-09-13T18:51:31.686Z,98268.69
2022-09-13T18:53:59.382Z,98275.09
2022-09-13T18:56:27.271Z,98279.16
2022-09-13T18:58:54.853Z,98285.91
2022-09-13T19:01:24.922Z,98288.81
2022-09-13T19:04:04.042Z,98280.41
2022-09-13T19:06:38.078Z,98278.34
2022-09-13T19:09:05.277Z,98280.53
2022-09-13T19:11:46.222Z,98285.09
2022-09-13T19:14:26.082Z,98287.41
2022-09-13T19:16:55.139Z,98289.47
2022-09-13T19:19:22.524Z,98286.63
2022-09-13T19:21:52.493Z,98289.47
2022-09-13T19:24:20.561Z,98293.16
2022-09-13T19:26:50.920Z,98286.63
2022-09-13T19:29:20.929Z,98291.19
2022-09-13T19:31:49.637Z,98284.88
2022-09-13T19:34:19.939Z,98295.78
2022-09-13T19:36:47.610Z,98293.25
2022-09-13T19:39:15.409Z,98298.44
2022-09-13T19:41:42.267Z,98306.69
2022-09-13T19:44:11.137Z,98311.88
2022-09-13T19:46:40.148Z,98302.31
2022-09-13T19:49:11.977Z,98295.44
2022-09-13T19:51:40.579Z,98302.03
2022-09-13T19:54:10.113Z,98293.88
2022-09-13T19:56:39.979Z,98294.78
2022-09-13T19:59:14.034Z,98291.53
2022-09-13T20:01:43.521Z,98286.63
2022-09-13T20:04:12.642Z,98287.53
2022-09-13T20:06:50.492Z,98282.63
2022-09-13T20:09:19.278Z,98283.69
2022-09-13T20:11:47.656Z,98287.75
2022-09-13T20:14:19.472Z,98288.06
2022-09-13T20:16:46.825Z,98289.00
2022-09-13T20:22:07.586Z,98286.94
2022-09-13T20:24:34.638Z,98275.97
2022-09-13T20:27:02.116Z,98274.53
2022-09-13T20:29:28.826Z,98281.56
2022-09-13T20:31:55.676Z,98281.50
2022-09-13T20:34:22.509Z,98280.97
2022-09-13T20:36:50.082Z,98279.34
2022-09-13T20:39:17.145Z,98277.44
2022-09-13T20:41:44.490Z,98275.50
2022-09-13T20:44:11.889Z,98271.00
2022-09-13T20:46:40.592Z,98271.94
2022-09-13T20:49:09.634Z,98267.13
2022-09-13T20:51:38.058Z,98270.22
2022-09-13T20:54:05.568Z,98262.84
2022-09-13T20:56:34.743Z,98264.97
2022-09-13T20:59:02.175Z,98257.97
2022-09-13T21:01:30.543Z,98256.47
2022-09-13T21:03:57.926Z,98250.50
2022-09-13T21:06:26.468Z,98254.31
2022-09-13T21:08:54.205Z,98256.81
2022-09-13T21:11:24.907Z,98270.56
2022-09-13T21:13:55.027Z,98267.16
2022-09-13T21:16:25.035Z,98264.66
2022-09-13T21:18:53.574Z,98260.78
2022-09-13T21:21:27.038Z,98267.16
2022-09-13T21:23:54.939Z,98260.59
2022-09-13T21:26:24.210Z,98267.53
2022-09-13T21:28:51.642Z,98273.91
2022-09-13T21:31:25.193Z,98262.66
2022-09-13T21:34:05.632Z,98258.81
2022-09-13T21:36:35.079Z,98268.09
2022-09-13T21:39:02.813Z,98270.34
2022-09-13T21:41:30.859Z,98272.13
2022-09-13T21:43:58.494Z,98270.94
2022-09-13T21:46:30.897Z,98272.22
2022-09-13T21:49:00.820Z,98273.03
2022-09-13T21:51:42.138Z,98265.25
2022-09-13T21:54:11.806Z,98263.31
2022-09-13T21:56:42.466Z,98255.34
2022-09-13T21:59:15.340Z,98264.59
2022-09-13T22:01:43.973Z,98270.38
2022-09-13T22:04:17.230Z,98265.13
2022-09-13T22:06:45.444Z,98270.88
2022-09-13T22:09:13.643Z,98276.00
2022-09-13T22:11:43.866Z,98278.50
2022-09-13T22:14:16.912Z,98276.97
2022-09-13T22:16:45.183Z,98279.41
2022-09-13T22:19:18.289Z,98265.81
2022-09-13T22:21:50.685Z,98260.47
2022-09-13T22:24:22.352Z,98253.53
2022-09-13T22:26:51.715Z,98251.09
2022-09-13T22:29:19.098Z,98245.41
2022-09-13T22:31:47.549Z,98236.50
2022-09-13T22:34:18.149Z,98244.09
2022-09-13T22:36:45.838Z,98251.31
2022-09-13T22:39:15.238Z,98243.16
2022-09-13T22:41:43.304Z,98237.66
2022-09-13T22:44:10.913Z,98229.22
2022-09-13T22:46:43.650Z,98235.56
2022-09-13T22:49:19.739Z,98237.38
2022-09-13T22:51:48.442Z,98244.34
2022-09-13T22:54:17.279Z,98239.88
2022-09-13T22:56:45.677Z,98237.38
2022-09-13T22:59:15.052Z,98247.22
2022-09-13T23:01:42.126Z,98261.59
2022-09-13T23:04:09.061Z,98268.09
2022-09-13T23:06:37.128Z,98257.44
2022-09-13T23:09:08.132Z,98254.56
2022-09-13T23:11:39.651Z,98252.31
2022-09-13T23:14:12.229Z,98255.25
2022-09-13T23:16:41.786Z,98248.84
2022-09-13T23:19:10.701Z,98241.84
2022-09-13T23:21:39.281Z,98226.66
2022-09-13T23:24:07.891Z,98219.28
2022-09-13T23:26:35.584Z,98223.81
2022-09-13T23:29:04.137Z,98220.91
2022-09-13T23:31:34.051Z,98220.69
2022-09-13T23:34:06.520Z,98211.38
2022-09-13T23:36:36.092Z,98225.09
2022-09-13T23:39:03.928Z,98227.19
2022-09-13T23:41:31.442Z,98236.13
2022-09-13T23:43:59.437Z,98224.53
2022-09-13T23:46:26.194Z,98217.31
2022-09-13T23:48:53.341Z,98222.28
2022-09-13T23:51:25.408Z,98234.78
2022-09-13T23:53:57.235Z,98233.53
2022-09-13T23:56:25.533Z,98233.31
2022-09-13T23:58:52.585Z,98219.03
